Time;durP1;ratioP1;P1;durP2;ratioP2;P2;SDS_P1;SDS_P2;PMS_P1;PMS_P2;Temp;Humidity;BMP_temperature;BMP_pressure;BME280_temperature;BME280_humidity;BME280_pressure;Samples;Min_cycle;Max_cycle;Signal;HPM_P1;HPM_P2
2022/05/17 00:00:57;;;;;;;12.70;6.00;;;19.20;49.10;;;;;;4995093;28;20440;-72
2022/05/17 00:03:22;;;;;;;19.17;6.60;;;19.40;46.80;;;;;;4991914;28;20429;-72
2022/05/17 00:05:49;;;;;;;13.90;6.27;;;19.00;49.10;;;;;;5003406;28;20451;-71
2022/05/17 00:08:16;;;;;;;21.63;6.40;;;19.00;49.20;;;;;;5001959;28;20212;-72
2022/05/17 00:10:43;;;;;;;14.03;6.30;;;19.20;47.90;;;;;;4990588;28;20482;-72
2022/05/17 00:13:09;;;;;;;13.43;6.47;;;19.10;48.80;;;;;;5003597;28;20948;-72
2022/05/17 00:15:39;;;;;;;15.80;6.73;;;19.20;49.10;;;;;;5000639;28;20495;-72
2022/05/17 00:18:05;;;;;;;10.20;6.40;;;18.80;50.30;;;;;;4993024;28;20453;-71
2022/05/17 00:20:32;;;;;;;18.53;6.43;;;19.00;50.10;;;;;;5004168;28;20434;-71
2022/05/17 00:22:59;;;;;;;13.13;6.17;;;18.80;50.80;;;;;;4987230;28;20450;-72
2022/05/17 00:25:25;;;;;;;12.60;6.27;;;18.70;50.10;;;;;;4990387;28;20446;-72
2022/05/17 00:27:52;;;;;;;20.23;6.07;;;18.50;50.90;;;;;;5000392;28;20473;-71
2022/05/17 00:30:18;;;;;;;10.00;5.77;;;18.60;51.80;;;;;;4977476;28;20799;-72
2022/05/17 00:32:44;;;;;;;13.43;6.20;;;18.80;50.50;;;;;;5010934;28;20418;-72
2022/05/17 00:35:09;;;;;;;17.20;6.90;;;18.60;51.70;;;;;;5000188;28;20784;-71
2022/05/17 00:37:36;;;;;;;18.93;6.27;;;18.80;49.60;;;;;;4993606;28;20706;-72
2022/05/17 00:40:04;;;;;;;17.40;6.50;;;18.70;50.40;;;;;;5000383;28;20192;-71
2022/05/17 00:42:30;;;;;;;11.23;6.70;;;18.50;52.10;;;;;;4989748;28;20952;-75
2022/05/17 00:44:56;;;;;;;18.13;7.17;;;18.60;51.30;;;;;;4996380;28;20496;-71
2022/05/17 00:47:42;;;;;;;9.33;6.60;;;18.50;51.90;;;;;;4993095;28;20593;-71
2022/05/17 00:50:19;;;;;;;11.93;7.20;;;18.40;51.90;;;;;;4993572;28;20224;-72
2022/05/17 00:52:59;;;;;;;16.33;7.00;;;18.60;51.50;;;;;;5004339;28;20414;-71
2022/05/17 00:55:34;;;;;;;16.73;7.70;;;18.50;51.60;;;;;;5009752;28;20406;-72
2022/05/17 00:58:10;;;;;;;18.03;7.80;;;18.60;49.30;;;;;;4991220;28;20473;-71
2022/05/17 01:00:42;;;;;;;20.33;7.70;;;18.60;50.90;;;;;;4988333;28;20432;-71
2022/05/17 01:03:10;;;;;;;20.33;7.27;;;18.40;51.30;;;;;;5002383;28;20438;-71
2022/05/17 01:05:41;;;;;;;19.90;7.60;;;18.40;52.20;;;;;;5012648;28;20807;-71
2022/05/17 01:08:09;;;;;;;14.60;7.50;;;18.30;51.10;;;;;;4991953;28;20481;-71
2022/05/17 01:10:34;;;;;;;17.47;8.07;;;18.20;52.20;;;;;;4995559;28;20423;-71
2022/05/17 01:15:46;;;;;;;17.20;7.73;;;18.50;50.20;;;;;;5007186;28;20200;-71
2022/05/17 01:18:12;;;;;;;14.83;7.87;;;18.30;52.60;;;;;;5005058;28;20460;-71
2022/05/17 01:20:39;;;;;;;17.33;8.00;;;18.20;53.10;;;;;;5006302;28;20809;-71
2022/05/17 01:23:04;;;;;;;12.57;7.70;;;18.30;53.00;;;;;;5002146;28;20807;-71
2022/05/17 01:25:30;;;;;;;17.40;8.23;;;18.40;51.30;;;;;;5005309;28;20514;-72
2022/05/17 01:28:04;;;;;;;11.63;7.80;;;18.40;51.40;;;;;;4986466;28;20658;-72
2022/05/17 01:30:32;;;;;;;12.57;7.93;;;18.10;52.80;;;;;;4988008;28;20267;-72
2022/05/17 01:32:57;;;;;;;15.77;8.10;;;18.00;52.00;;;;;;5002348;28;20429;-71
2022/05/17 01:35:23;;;;;;;12.43;7.93;;;18.00;52.00;;;;;;5004024;28;20429;-72
2022/05/17 01:37:52;;;;;;;14.33;8.47;;;17.90;53.90;;;;;;4999586;28;20300;-71
2022/05/17 01:40:18;;;;;;;15.13;8.90;;;17.90;55.70;;;;;;5002985;28;20432;-73
2022/05/17 01:42:44;;;;;;;12.90;8.30;;;17.90;55.00;;;;;;5004935;28;20439;-74
2022/05/17 01:45:11;;;;;;;21.33;8.50;;;18.10;52.20;;;;;;4999318;28;20461;-71
2022/05/17 01:47:37;;;;;;;15.70;8.60;;;18.00;53.70;;;;;;4998978;28;20580;-73
2022/05/17 01:50:04;;;;;;;15.90;8.13;;;18.00;54.60;;;;;;4993132;28;20499;-72
2022/05/17 01:52:29;;;;;;;25.80;7.87;;;17.90;53.50;;;;;;5002031;28;20182;-71
2022/05/17 01:54:55;;;;;;;13.80;8.27;;;17.80;53.20;;;;;;5007971;28;20416;-71
2022/05/17 01:57:20;;;;;;;16.50;8.47;;;17.70;55.70;;;;;;5001832;28;20193;-72
2022/05/17 01:59:46;;;;;;;18.67;7.70;;;17.60;54.10;;;;;;4991113;28;20179;-74
2022/05/17 02:02:12;;;;;;;21.17;8.57;;;17.50;54.50;;;;;;4994637;28;20178;-73
2022/05/17 02:04:38;;;;;;;13.43;7.93;;;17.60;55.10;;;;;;4999353;28;20180;-71
2022/05/17 02:07:04;;;;;;;19.00;8.00;;;17.50;53.60;;;;;;4992133;28;20626;-71
2022/05/17 02:09:30;;;;;;;16.10;7.70;;;17.50;54.90;;;;;;4999162;28;20532;-72
2022/05/17 02:11:56;;;;;;;21.70;8.30;;;17.50;54.70;;;;;;4999379;28;20446;-72
2022/05/17 02:14:21;;;;;;;22.07;8.67;;;17.60;54.80;;;;;;4995337;28;20188;-72
2022/05/17 02:16:47;;;;;;;13.17;7.70;;;17.60;54.30;;;;;;5004620;28;20810;-72
2022/05/17 02:19:13;;;;;;;15.20;8.33;;;17.60;53.80;;;;;;5000759;28;20221;-72
2022/05/17 02:21:39;;;;;;;14.60;7.77;;;17.80;53.20;;;;;;5003091;28;20248;-71
2022/05/17 02:24:05;;;;;;;14.80;8.00;;;17.60;54.40;;;;;;5011319;28;20170;-71
2022/05/17 02:26:31;;;;;;;15.87;7.57;;;17.60;54.40;;;;;;5011678;28;20452;-72
2022/05/17 02:28:57;;;;;;;13.17;7.47;;;17.70;52.70;;;;;;5006665;28;20509;-72
2022/05/17 02:31:23;;;;;;;16.93;6.93;;;17.80;53.60;;;;;;4987439;28;20435;-72
2022/05/17 02:33:50;;;;;;;16.03;7.47;;;17.70;53.40;;;;;;4999712;28;20673;-73
2022/05/17 02:36:15;;;;;;;14.27;7.33;;;17.70;53.40;;;;;;4990806;28;20439;-72
2022/05/17 02:38:43;;;;;;;15.43;8.03;;;17.60;54.00;;;;;;5000380;28;20833;-74
2022/05/17 02:41:10;;;;;;;15.10;7.70;;;17.50;53.40;;;;;;5002631;28;20654;-72
2022/05/17 02:43:37;;;;;;;14.97;7.03;;;17.30;54.50;;;;;;4995996;28;20438;-72
2022/05/17 02:46:03;;;;;;;15.90;8.60;;;17.30;54.50;;;;;;4995284;28;20475;-71
2022/05/17 02:48:29;;;;;;;18.33;8.03;;;17.40;54.40;;;;;;4997644;28;20471;-71
2022/05/17 02:50:55;;;;;;;12.97;8.03;;;17.70;52.50;;;;;;4997874;28;20464;-71
2022/05/17 02:53:21;;;;;;;15.50;7.80;;;17.40;54.70;;;;;;4999989;28;20184;-72
2022/05/17 02:55:47;;;;;;;11.60;7.70;;;17.40;55.00;;;;;;4999292;28;20531;-71
2022/05/17 02:58:13;;;;;;;11.80;7.70;;;17.50;54.00;;;;;;5003281;28;20470;-71
2022/05/17 03:00:38;;;;;;;13.63;7.23;;;17.40;54.10;;;;;;4995094;28;20787;-72
2022/05/17 03:03:04;;;;;;;18.40;10.13;;;17.50;54.20;;;;;;5003916;28;20598;-73
2022/05/17 03:05:30;;;;;;;13.27;7.63;;;17.60;52.80;;;;;;4997246;28;20280;-71
2022/05/17 03:07:55;;;;;;;22.23;7.60;;;17.50;53.00;;;;;;4995201;28;20223;-71
2022/05/17 03:10:21;;;;;;;16.20;7.80;;;17.40;53.70;;;;;;4994959;28;20788;-72
2022/05/17 03:12:47;;;;;;;18.23;7.53;;;17.50;54.60;;;;;;5001757;28;20614;-71
2022/05/17 03:15:23;;;;;;;13.60;7.77;;;17.40;54.10;;;;;;5003435;28;20995;-72
2022/05/17 03:17:49;;;;;;;10.13;7.20;;;17.40;53.10;;;;;;4995070;28;20685;-72
2022/05/17 03:20:15;;;;;;;15.37;8.87;;;17.30;54.40;;;;;;4996158;28;20868;-72
2022/05/17 03:22:41;;;;;;;12.73;8.00;;;17.20;55.30;;;;;;5002780;28;20433;-71
2022/05/17 03:25:07;;;;;;;16.00;8.30;;;17.20;54.10;;;;;;4997374;28;20990;-72
2022/05/17 03:27:32;;;;;;;15.10;7.67;;;17.20;54.50;;;;;;5002391;28;20188;-72
2022/05/17 03:29:58;;;;;;;12.80;7.90;;;17.20;55.20;;;;;;4994641;28;20520;-71
2022/05/17 03:32:24;;;;;;;11.90;7.03;;;17.20;53.60;;;;;;4996918;28;20229;-71
2022/05/17 03:34:49;;;;;;;18.53;7.30;;;17.20;52.80;;;;;;5005621;28;20665;-71
2022/05/17 03:37:15;;;;;;;9.73;6.80;;;17.10;53.30;;;;;;5004496;28;20371;-71
2022/05/17 03:39:40;;;;;;;17.80;8.30;;;17.10;53.50;;;;;;5002583;28;20213;-74
2022/05/17 03:42:09;;;;;;;12.30;7.87;;;17.30;51.90;;;;;;4994539;28;20182;-72
2022/05/17 03:44:36;;;;;;;10.67;7.10;;;17.40;52.30;;;;;;5005667;28;20269;-71
2022/05/17 03:47:04;;;;;;;20.20;7.13;;;17.30;51.40;;;;;;5003018;28;20421;-72
2022/05/17 03:49:30;;;;;;;17.30;7.80;;;17.10;52.30;;;;;;4994002;28;20496;-71
2022/05/17 03:51:55;;;;;;;13.00;7.30;;;17.10;52.30;;;;;;4993686;28;20855;-72
2022/05/17 03:54:22;;;;;;;10.43;7.30;;;17.00;53.50;;;;;;4996899;28;20268;-75
2022/05/17 03:56:48;;;;;;;22.40;8.40;;;16.90;55.00;;;;;;5002490;28;20174;-71
2022/05/17 03:59:14;;;;;;;15.20;7.73;;;17.00;55.10;;;;;;4994175;28;20846;-71
2022/05/17 04:01:40;;;;;;;12.20;7.20;;;17.00;54.50;;;;;;4993753;28;20197;-72
2022/05/17 04:04:05;;;;;;;12.30;7.80;;;17.00;53.10;;;;;;4983724;28;20529;-77
2022/05/17 04:06:31;;;;;;;22.80;8.13;;;17.00;54.00;;;;;;4993727;28;20548;-71
2022/05/17 04:08:57;;;;;;;23.43;8.27;;;16.90;55.00;;;;;;4994030;28;20205;-71
2022/05/17 04:11:22;;;;;;;17.80;8.17;;;17.10;54.30;;;;;;4993736;28;20169;-71
2022/05/17 04:13:48;;;;;;;18.03;8.33;;;17.10;55.20;;;;;;4999844;28;20194;-72
2022/05/17 04:16:13;;;;;;;14.73;7.93;;;17.10;55.20;;;;;;5001327;28;20181;-73
2022/05/17 04:18:39;;;;;;;15.67;8.33;;;17.10;54.40;;;;;;4993894;28;20194;-71
2022/05/17 04:21:05;;;;;;;12.77;8.00;;;17.10;54.10;;;;;;4992929;28;20589;-71
2022/05/17 04:23:31;;;;;;;19.23;8.27;;;17.10;54.80;;;;;;4998063;28;20193;-71
2022/05/17 04:25:57;;;;;;;21.43;8.20;;;17.10;55.20;;;;;;4996293;28;20802;-72
2022/05/17 04:28:23;;;;;;;16.47;8.17;;;17.40;54.10;;;;;;5005347;28;20224;-72
2022/05/17 04:30:49;;;;;;;16.90;8.57;;;17.40;55.50;;;;;;4995443;28;20942;-71
2022/05/17 04:33:15;;;;;;;15.90;8.20;;;17.30;55.40;;;;;;5001602;28;20409;-71
2022/05/17 04:35:41;;;;;;;14.53;8.00;;;17.40;55.50;;;;;;4993598;28;20417;-72
2022/05/17 04:38:07;;;;;;;16.60;9.10;;;17.40;55.50;;;;;;4993104;28;20670;-71
2022/05/17 04:40:36;;;;;;;12.50;8.03;;;17.60;55.60;;;;;;5000770;28;20920;-71
2022/05/17 04:43:02;;;;;;;14.30;7.47;;;17.50;55.20;;;;;;5010165;28;20427;-71
2022/05/17 04:45:28;;;;;;;18.43;9.00;;;17.40;54.40;;;;;;5009855;28;20436;-71
2022/05/17 04:47:53;;;;;;;18.67;9.70;;;17.20;53.50;;;;;;5001733;28;20460;-74
2022/05/17 04:50:20;;;;;;;16.93;9.60;;;16.40;59.00;;;;;;4991592;28;20554;-74
2022/05/17 04:52:47;;;;;;;21.70;10.27;;;15.90;63.70;;;;;;4996500;28;20187;-73
2022/05/17 04:55:14;;;;;;;24.87;10.73;;;16.30;63.10;;;;;;4992871;28;20414;-75
2022/05/17 04:57:40;;;;;;;21.00;12.13;;;16.70;59.90;;;;;;4997475;28;20540;-74
2022/05/17 05:00:09;;;;;;;23.53;12.00;;;17.10;58.60;;;;;;4992794;28;20527;-75
2022/05/17 05:02:35;;;;;;;16.67;11.63;;;17.20;58.20;;;;;;4996063;28;20690;-75
2022/05/17 05:05:01;;;;;;;17.13;10.37;;;17.50;55.50;;;;;;5000313;28;20430;-75
2022/05/17 05:07:26;;;;;;;23.43;10.90;;;17.40;54.70;;;;;;5009943;28;21034;-74
2022/05/17 05:09:52;;;;;;;20.10;11.07;;;17.40;55.40;;;;;;5011231;28;20187;-74
2022/05/17 05:12:18;;;;;;;20.37;11.23;;;17.80;55.80;;;;;;5002194;28;20544;-73
2022/05/17 05:14:43;;;;;;;21.03;11.23;;;17.90;55.90;;;;;;5020022;23;20269;-68
2022/05/17 05:17:09;;;;;;;15.33;9.10;;;18.10;54.50;;;;;;4997486;28;20461;-70
2022/05/17 05:19:36;;;;;;;23.00;10.30;;;18.10;53.70;;;;;;4999511;28;20197;-73
2022/05/17 05:22:01;;;;;;;18.10;9.47;;;18.40;53.00;;;;;;5000008;28;20206;-70
2022/05/17 05:24:27;;;;;;;17.93;10.63;;;18.50;53.90;;;;;;5003578;28;20450;-71
2022/05/17 05:26:53;;;;;;;16.63;9.80;;;18.50;54.10;;;;;;5008218;28;20182;-71
2022/05/17 05:29:18;;;;;;;21.40;10.93;;;18.50;54.80;;;;;;4995706;28;20240;-70
2022/05/17 05:31:44;;;;;;;36.97;11.30;;;18.40;52.30;;;;;;5011682;28;20174;-70
2022/05/17 05:34:10;;;;;;;22.80;11.67;;;18.50;52.60;;;;;;4999967;28;20188;-70
2022/05/17 05:36:36;;;;;;;27.03;10.73;;;18.60;53.90;;;;;;5005667;28;20224;-68
2022/05/17 05:39:02;;;;;;;16.53;10.83;;;18.70;53.80;;;;;;5007198;28;20428;-69
2022/05/17 05:41:28;;;;;;;20.77;10.83;;;18.90;52.10;;;;;;4995598;28;20887;-70
2022/05/17 05:43:54;;;;;;;17.07;10.03;;;18.90;50.80;;;;;;4995518;28;20455;-70
2022/05/17 05:46:20;;;;;;;22.63;10.83;;;19.10;51.60;;;;;;4991917;28;20486;-71
2022/05/17 05:48:46;;;;;;;19.43;10.70;;;18.90;49.10;;;;;;4991123;28;20472;-70
2022/05/17 05:51:12;;;;;;;25.77;11.43;;;18.10;51.90;;;;;;4995398;28;20858;-72
2022/05/17 05:53:38;;;;;;;20.43;11.20;;;17.90;55.90;;;;;;4997645;28;20253;-72
2022/05/17 05:56:05;;;;;;;19.20;11.43;;;18.20;52.80;;;;;;4999213;28;20458;-71
2022/05/17 05:58:36;;;;;;;20.90;10.43;;;18.40;54.20;;;;;;5002731;28;20467;-71
2022/05/17 06:01:02;;;;;;;14.80;10.13;;;18.00;53.80;;;;;;4999671;28;20435;-72
2022/05/17 06:03:28;;;;;;;20.13;11.30;;;17.90;53.90;;;;;;5003567;28;20422;-72
2022/05/17 06:05:54;;;;;;;25.40;12.27;;;18.10;53.60;;;;;;4979691;28;20214;-71
2022/05/17 06:08:21;;;;;;;17.27;10.40;;;18.20;53.10;;;;;;5006879;28;20537;-73
2022/05/17 06:10:47;;;;;;;15.70;10.90;;;18.30;53.80;;;;;;4990909;28;20445;-71
2022/05/17 06:13:16;;;;;;;16.07;10.20;;;18.20;51.90;;;;;;4993633;28;20427;-69
2022/05/17 06:15:43;;;;;;;21.17;9.73;;;18.10;53.10;;;;;;5001254;28;20450;-72
2022/05/17 06:18:09;;;;;;;17.50;10.90;;;17.80;54.40;;;;;;4997297;28;20442;-72
2022/05/17 06:20:36;;;;;;;15.50;10.53;;;18.20;53.30;;;;;;5002548;28;20455;-71
2022/05/17 06:23:03;;;;;;;21.80;11.20;;;18.50;55.20;;;;;;4995745;28;20777;-71
2022/05/17 06:25:29;;;;;;;26.40;12.90;;;19.10;51.00;;;;;;4995460;28;20483;-71
2022/05/17 06:27:54;;;;;;;23.80;12.33;;;19.70;49.30;;;;;;5004559;28;20483;-71
2022/05/17 06:30:20;;;;;;;20.20;11.17;;;19.50;46.80;;;;;;5002528;28;20194;-71
2022/05/17 06:32:46;;;;;;;24.30;12.80;;;18.90;52.00;;;;;;5000315;28;20185;-70
2022/05/17 06:35:13;;;;;;;25.73;12.20;;;19.60;49.50;;;;;;4996345;28;20205;-71
2022/05/17 06:37:39;;;;;;;20.80;12.30;;;20.00;48.30;;;;;;5005987;28;20277;-71
2022/05/17 06:40:06;;;;;;;22.20;12.70;;;19.30;49.70;;;;;;5006789;28;20500;-71
2022/05/17 06:42:32;;;;;;;22.97;12.60;;;19.00;49.10;;;;;;5010780;28;20404;-71
2022/05/17 06:44:58;;;;;;;21.80;12.00;;;18.90;50.10;;;;;;4995778;28;20461;-72
2022/05/17 06:47:24;;;;;;;19.97;12.50;;;18.60;52.60;;;;;;5008670;28;20240;-71
2022/05/17 06:49:49;;;;;;;15.60;11.67;;;18.70;52.60;;;;;;5009969;28;20444;-70
2022/05/17 06:52:16;;;;;;;24.20;12.30;;;19.20;50.50;;;;;;4995307;28;20176;-73
2022/05/17 06:54:43;;;;;;;20.77;11.90;;;19.00;50.90;;;;;;4992817;28;20202;-70
2022/05/17 06:57:10;;;;;;;19.47;11.33;;;19.10;50.40;;;;;;5004379;28;20512;-71
2022/05/17 06:59:37;;;;;;;22.33;11.43;;;19.20;49.10;;;;;;5000481;28;20448;-73
2022/05/17 07:02:04;;;;;;;20.63;11.80;;;19.30;51.20;;;;;;5002011;28;20507;-72
2022/05/17 07:04:33;;;;;;;25.97;11.60;;;19.50;50.30;;;;;;5001295;28;20446;-72
2022/05/17 07:06:59;;;;;;;23.53;12.67;;;19.90;48.00;;;;;;5003230;28;20556;-72
2022/05/17 07:09:27;;;;;;;32.77;14.10;;;19.80;48.60;;;;;;4996239;28;20418;-72
2022/05/17 07:14:38;;;;;;;24.73;13.07;;;20.50;47.20;;;;;;4989708;28;20476;-72
2022/05/17 07:17:15;;;;;;;26.03;13.27;;;20.70;44.90;;;;;;4993889;28;20439;-72
2022/05/17 07:19:41;;;;;;;24.03;12.93;;;19.80;48.60;;;;;;4986117;28;20914;-72
2022/05/17 07:22:07;;;;;;;22.33;11.60;;;20.00;49.40;;;;;;4994786;28;20441;-72
2022/05/17 07:24:34;;;;;;;29.00;10.87;;;20.40;49.30;;;;;;4994606;28;20433;-72
2022/05/17 07:27:00;;;;;;;19.90;11.03;;;20.50;47.90;;;;;;4999744;28;20489;-71
2022/05/17 07:29:26;;;;;;;18.57;10.73;;;20.00;48.40;;;;;;4987474;28;20435;-72
2022/05/17 07:32:00;;;;;;;23.20;10.90;;;19.90;49.30;;;;;;4984668;28;20485;-71
2022/05/17 07:34:27;;;;;;;15.60;10.30;;;20.60;47.80;;;;;;4979832;28;20171;-70
2022/05/17 07:36:54;;;;;;;14.87;10.00;;;20.40;47.40;;;;;;4996886;28;20442;-71
2022/05/17 07:39:19;;;;;;;22.43;9.53;;;20.60;46.50;;;;;;4995292;28;20400;-70
2022/05/17 07:41:45;;;;;;;18.63;10.57;;;20.50;45.40;;;;;;4992693;28;20975;-72
2022/05/17 07:44:11;;;;;;;19.13;10.60;;;20.40;46.00;;;;;;4993480;28;20719;-71
2022/05/17 07:46:37;;;;;;;17.40;10.67;;;20.50;46.60;;;;;;4996575;28;20312;-71
2022/05/17 07:49:03;;;;;;;17.77;9.40;;;20.80;46.10;;;;;;5000950;28;21053;-73
2022/05/17 07:51:29;;;;;;;22.80;10.00;;;21.20;44.60;;;;;;4990049;28;20247;-72
2022/05/17 07:53:55;;;;;;;14.63;8.60;;;20.80;46.50;;;;;;4988582;28;20174;-72
2022/05/17 07:56:21;;;;;;;11.80;8.50;;;21.10;45.40;;;;;;5000295;28;20202;-72
2022/05/17 07:58:47;;;;;;;17.23;8.83;;;20.70;47.50;;;;;;4990325;28;20445;-72
2022/05/17 08:01:12;;;;;;;22.03;8.97;;;21.30;45.50;;;;;;4999826;28;20507;-73
2022/05/17 08:03:38;;;;;;;16.10;9.70;;;21.90;43.30;;;;;;4981507;28;20207;-71
2022/05/17 08:06:05;;;;;;;23.20;8.97;;;21.80;43.00;;;;;;4996202;28;20280;-72
2022/05/17 08:08:31;;;;;;;13.97;8.67;;;22.20;42.00;;;;;;4994743;28;20186;-72
2022/05/17 08:10:56;;;;;;;15.93;9.50;;;22.50;41.40;;;;;;4998976;28;20943;-72
2022/05/17 08:13:23;;;;;;;17.87;10.10;;;21.80;42.50;;;;;;4995540;28;20463;-71
2022/05/17 08:15:49;;;;;;;20.93;9.93;;;21.10;46.30;;;;;;4997487;28;20220;-72
2022/05/17 08:18:16;;;;;;;15.23;10.23;;;20.90;47.50;;;;;;5001186;28;20432;-71
2022/05/17 08:20:42;;;;;;;17.13;9.63;;;21.10;47.10;;;;;;4992182;28;20495;-71
2022/05/17 08:23:08;;;;;;;18.63;10.13;;;21.80;45.30;;;;;;5006970;28;20418;-71
2022/05/17 08:28:18;;;;;;;24.50;10.60;;;21.70;43.30;;;;;;4987934;28;20257;-72
2022/05/17 08:30:46;;;;;;;21.23;9.57;;;21.80;43.10;;;;;;5001170;28;20807;-73
2022/05/17 08:33:18;;;;;;;19.60;9.53;;;22.10;43.70;;;;;;4997048;28;20611;-71
2022/05/17 08:35:46;;;;;;;16.30;9.20;;;22.80;39.40;;;;;;4989902;28;20458;-71
2022/05/17 08:38:18;;;;;;;15.10;9.60;;;22.30;42.00;;;;;;4999433;28;20507;-72
2022/05/17 08:40:56;;;;;;;12.77;8.93;;;22.80;38.70;;;;;;5003216;28;20466;-73
2022/05/17 08:43:25;;;;;;;13.20;8.63;;;23.00;38.70;;;;;;4992302;28;20489;-71
2022/05/17 08:46:23;;;;;;;13.10;8.60;;;23.30;37.60;;;;;;4991355;28;20474;-70
2022/05/17 08:49:12;;;;;;;14.53;9.07;;;22.90;38.60;;;;;;4988604;28;20909;-71
2022/05/17 08:51:42;;;;;;;14.90;8.90;;;22.40;38.40;;;;;;4987215;28;20439;-71
2022/05/17 08:54:12;;;;;;;18.10;9.20;;;23.20;36.60;;;;;;4991844;28;20478;-72
2022/05/17 08:56:45;;;;;;;13.50;9.33;;;23.40;34.20;;;;;;4991899;28;20460;-71
2022/05/17 08:59:14;;;;;;;14.50;8.13;;;23.60;34.40;;;;;;5000751;28;20898;-71
2022/05/17 09:01:48;;;;;;;16.57;8.17;;;23.90;33.10;;;;;;4998801;28;20452;-75
2022/05/17 09:04:25;;;;;;;12.30;8.03;;;23.70;32.10;;;;;;4993646;28;20753;-71
2022/05/17 09:07:12;;;;;;;13.83;7.60;;;23.70;32.50;;;;;;4991872;28;21177;-70
2022/05/17 09:10:02;;;;;;;16.03;7.30;;;23.90;31.70;;;;;;4991534;28;20436;-71
2022/05/17 09:12:39;;;;;;;19.67;8.30;;;23.40;32.90;;;;;;4990508;28;20475;-72
2022/05/17 09:15:06;;;;;;;16.97;8.23;;;23.10;33.80;;;;;;4977124;28;20456;-70
2022/05/17 09:17:32;;;;;;;14.30;7.40;;;22.90;33.80;;;;;;4996079;28;20425;-71
2022/05/17 09:19:59;;;;;;;15.87;7.23;;;23.20;32.20;;;;;;4993603;28;20440;-71
2022/05/17 09:22:24;;;;;;;11.27;7.13;;;23.80;31.90;;;;;;5002090;28;20423;-71
2022/05/17 09:24:58;;;;;;;23.57;7.30;;;23.20;32.90;;;;;;4993333;28;20821;-71
2022/05/17 09:27:35;;;;;;;12.70;7.80;;;23.40;31.30;;;;;;4987520;28;20259;-70
2022/05/17 09:30:33;;;;;;;17.97;8.03;;;23.10;34.20;;;;;;4991121;28;20482;-71
2022/05/17 09:33:21;;;;;;;14.57;7.73;;;23.10;34.10;;;;;;4983834;28;20447;-71
2022/05/17 09:35:53;;;;;;;12.63;7.83;;;23.60;32.80;;;;;;4998680;28;20440;-71
2022/05/17 09:38:19;;;;;;;19.80;9.23;;;23.30;34.00;;;;;;4973914;28;20440;-72
2022/05/17 09:40:48;;;;;;;22.23;9.13;;;23.20;34.00;;;;;;4989518;28;20996;-71
2022/05/17 09:43:16;;;;;;;14.37;7.63;;;23.50;34.30;;;;;;4992416;28;20473;-73
2022/05/17 09:45:58;;;;;;;12.03;6.80;;;23.60;33.70;;;;;;4997330;28;20455;-71
2022/05/17 09:48:30;;;;;;;21.67;6.90;;;23.70;33.40;;;;;;4972770;28;20788;-71
2022/05/17 09:53:47;;;;;;;16.10;7.23;;;23.20;34.30;;;;;;4976184;28;20432;-71
2022/05/17 09:56:16;;;;;;;15.00;8.10;;;23.60;34.00;;;;;;4992111;28;20575;-71
2022/05/17 09:58:44;;;;;;;11.20;6.90;;;23.70;33.00;;;;;;4992341;28;20434;-71
2022/05/17 10:01:38;;;;;;;11.70;7.20;;;23.10;33.40;;;;;;4992405;28;20460;-71
2022/05/17 10:04:19;;;;;;;12.13;7.60;;;23.40;33.40;;;;;;4991790;28;20547;-71
2022/05/17 10:06:55;;;;;;;11.37;6.60;;;23.80;33.00;;;;;;4972827;28;20661;-71
2022/05/17 10:09:29;;;;;;;12.17;7.00;;;23.40;32.90;;;;;;4972712;28;20482;-71
2022/05/17 10:12:16;;;;;;;9.57;6.73;;;24.00;33.00;;;;;;4972329;28;20398;-73
2022/05/17 10:14:52;;;;;;;8.97;6.27;;;25.40;29.80;;;;;;4973039;28;20466;-71
2022/05/17 10:17:21;;;;;;;11.20;6.30;;;25.80;27.80;;;;;;4972408;28;20421;-71
2022/05/17 10:19:52;;;;;;;12.27;6.60;;;26.20;29.00;;;;;;4972764;28;20459;-71
2022/05/17 10:22:23;;;;;;;13.47;6.70;;;25.60;27.80;;;;;;4972886;28;20971;-72
2022/05/17 10:25:01;;;;;;;12.33;6.87;;;25.50;27.10;;;;;;4972312;28;20421;-71
2022/05/17 10:27:32;;;;;;;7.97;5.50;;;25.50;28.90;;;;;;4989415;28;20440;-71
2022/05/17 10:30:39;;;;;;;10.40;4.87;;;26.20;28.40;;;;;;4991910;28;20428;-71
2022/05/17 10:33:10;;;;;;;10.50;5.53;;;25.90;24.90;;;;;;4991825;28;20896;-71
2022/05/17 10:35:45;;;;;;;10.50;5.60;;;25.70;27.60;;;;;;4991947;28;20838;-71
2022/05/17 10:38:21;;;;;;;18.87;5.77;;;26.80;25.70;;;;;;4991705;28;20934;-71
2022/05/17 10:40:49;;;;;;;8.03;5.27;;;26.80;24.70;;;;;;4991642;28;20416;-71
2022/05/17 10:43:31;;;;;;;10.40;5.23;;;26.10;25.00;;;;;;4974300;28;20456;-71
2022/05/17 10:46:12;;;;;;;7.73;5.03;;;25.60;25.80;;;;;;4991922;28;20434;-71
2022/05/17 10:48:43;;;;;;;7.73;4.10;;;24.90;27.40;;;;;;4991235;28;20946;-71
2022/05/17 10:51:34;;;;;;;13.37;5.00;;;25.60;26.00;;;;;;4991619;28;20492;-71
2022/05/17 10:54:25;;;;;;;11.53;4.67;;;25.70;24.10;;;;;;4990644;28;20493;-71
2022/05/17 10:57:23;;;;;;;13.37;4.23;;;26.50;27.10;;;;;;4993198;28;20438;-72
2022/05/17 11:00:02;;;;;;;14.43;4.50;;;26.80;21.80;;;;;;4992182;28;20531;-72
2022/05/17 11:03:00;;;;;;;6.37;4.17;;;25.70;24.00;;;;;;4986614;28;20432;-71
2022/05/17 11:06:09;;;;;;;8.53;4.17;;;27.20;24.60;;;;;;4937820;28;20457;-72
2022/05/17 11:08:52;;;;;;;5.87;3.77;;;28.00;23.00;;;;;;4978774;28;20479;-72
2022/05/17 11:11:38;;;;;;;7.47;4.60;;;28.60;19.70;;;;;;4997457;28;20436;-72
2022/05/17 11:14:17;;;;;;;5.20;3.77;;;28.90;19.90;;;;;;4995046;28;20468;-71
2022/05/17 11:16:49;;;;;;;7.80;4.07;;;28.80;19.60;;;;;;5000260;28;20491;-72
2022/05/17 11:19:25;;;;;;;10.07;4.03;;;29.00;20.80;;;;;;4993115;28;20436;-71
2022/05/17 11:22:18;;;;;;;9.67;4.40;;;29.70;19.20;;;;;;5002567;23;20498;-77
2022/05/17 11:24:53;;;;;;;10.00;4.37;;;29.20;18.50;;;;;;4955179;28;20941;-75
2022/05/17 11:27:33;;;;;;;7.67;4.70;;;27.50;20.80;;;;;;4965175;28;20913;-75
2022/05/17 11:30:09;;;;;;;7.73;3.60;;;27.30;21.70;;;;;;4953760;28;20442;-75
2022/05/17 11:32:42;;;;;;;7.73;4.03;;;26.40;20.00;;;;;;4952827;28;20497;-75
2022/05/17 11:35:26;;;;;;;4.70;3.10;;;26.80;22.70;;;;;;4953968;28;20439;-76
2022/05/17 11:37:54;;;;;;;6.80;3.70;;;29.50;21.10;;;;;;4952111;28;20445;-75
2022/05/17 11:41:04;;;;;;;5.80;3.40;;;28.80;17.30;;;;;;4953611;28;21150;-76
2022/05/17 11:43:51;;;;;;;6.33;3.70;;;29.80;18.40;;;;;;4944882;28;20443;-76
2022/05/17 11:46:29;;;;;;;4.87;3.40;;;31.60;18.00;;;;;;4969048;28;20953;-76
2022/05/17 11:48:59;;;;;;;5.77;3.60;;;33.30;15.90;;;;;;4953967;28;20465;-75
2022/05/17 11:51:31;;;;;;;6.50;3.33;;;32.90;14.30;;;;;;4951301;28;20454;-75
2022/05/17 11:53:57;;;;;;;23.30;4.20;;;33.10;14.80;;;;;;4949980;28;20525;-77
2022/05/17 11:56:26;;;;;;;5.20;3.47;;;33.20;13.40;;;;;;4953281;28;20529;-76
2022/05/17 11:58:55;;;;;;;5.13;3.30;;;33.00;14.80;;;;;;4969757;28;20842;-76
2022/05/17 12:01:26;;;;;;;7.40;3.20;;;33.50;14.90;;;;;;4953696;28;20467;-77
2022/05/17 12:04:14;;;;;;;9.80;3.30;;;34.10;13.70;;;;;;4953481;28;20446;-77
2022/05/17 12:07:04;;;;;;;6.30;3.20;;;34.00;14.00;;;;;;4951158;28;21149;-77
2022/05/17 12:09:49;;;;;;;12.87;3.80;;;34.70;13.80;;;;;;4951850;28;20478;-76
2022/05/17 12:12:32;;;;;;;6.10;3.43;;;34.90;13.40;;;;;;4953067;28;20455;-76
2022/05/17 12:15:09;;;;;;;6.20;3.60;;;35.30;13.80;;;;;;4953135;28;20549;-77
2022/05/17 12:17:47;;;;;;;9.40;3.67;;;35.50;13.30;;;;;;4946013;28;20447;-76
2022/05/17 12:20:29;;;;;;;7.10;3.53;;;35.20;14.10;;;;;;4952154;29;20827;-76
2022/05/17 12:23:06;;;;;;;10.80;3.50;;;34.50;12.70;;;;;;4952995;28;20543;-76
2022/05/17 12:25:55;;;;;;;7.20;3.50;;;34.20;13.10;;;;;;4946611;29;20915;-76
2022/05/17 12:28:30;;;;;;;4.77;3.20;;;34.10;12.90;;;;;;4950243;29;20546;-76
2022/05/17 12:31:02;;;;;;;6.63;2.90;;;33.00;12.30;;;;;;4948793;29;21074;-76
2022/05/17 12:33:34;;;;;;;10.27;3.00;;;32.40;13.00;;;;;;4945989;29;20481;-76
2022/05/17 12:36:23;;;;;;;5.63;3.27;;;32.00;14.60;;;;;;4952554;28;20427;-76
2022/05/17 12:44:59;;;;;;;7.97;3.30;;;31.40;14.70;;;;;;4948175;29;20497;-76
2022/05/17 12:47:34;;;;;;;6.13;3.57;;;31.10;14.20;;;;;;4950893;29;20446;-76
2022/05/17 12:50:00;;;;;;;7.60;3.50;;;31.30;17.20;;;;;;4951471;29;20504;-75
2022/05/17 12:52:29;;;;;;;6.30;3.10;;;32.00;15.00;;;;;;4949378;28;20455;-76
2022/05/17 12:55:00;;;;;;;13.60;3.00;;;31.90;14.80;;;;;;4953235;28;20426;-75
2022/05/17 12:57:33;;;;;;;5.00;2.90;;;32.60;16.80;;;;;;4952375;29;20423;-77
2022/05/17 13:00:10;;;;;;;6.73;3.07;;;32.10;13.20;;;;;;4953512;28;20466;-75
2022/05/17 13:02:42;;;;;;;6.77;3.30;;;31.60;12.30;;;;;;4951400;28;20458;-76
2022/05/17 13:05:35;;;;;;;4.70;3.30;;;29.40;15.50;;;;;;4951381;29;20430;-75
2022/05/17 13:08:14;;;;;;;5.53;3.10;;;30.00;16.10;;;;;;4951372;28;20459;-74